Flight Track Log - Related Links

Times and Time Zones

All times are in EDT time to prevent confusion due to time zone crossing. See the N830QS flight status page for this flight to view local times or setup timezone preferences in your user account.

Time Position Orientation Groundspeed Altitude Reporting Facility
EDT Latitude Longitude Course Direction KTS MPH feet Rate Location/Type
Sun 01:48:42 PM 33.3167 -111.6667 337° Northwest 170 196 1,800  Level Phoenix TRACON
Sun 01:49:18 PM 33.3500 -111.6833 90° East 214 246 3,400 2,125 Climbing Phoenix TRACON
Sun 01:50:18 PM 33.3500 -111.6333 90° East 203 234 5,200 2,380 Climbing Phoenix TRACON
Sun 01:51:19 PM 33.3667 -111.5667 73° East 238 274 8,200 2,926 Climbing Phoenix TRACON
Sun 01:52:19 PM 33.4333 -111.5833 348° North 230 265 11,100 2,033 Climbing Phoenix TRACON
Sun 01:53:20 PM 33.4989 -111.5881 357° North 300 345 12,300 2,098 Climbing Albuquerque Center
Sun 01:54:22 PM 33.5731 -111.6767 315° West 312 359 15,400 2,565 Climbing Albuquerque Center
Sun 01:55:24 PM 33.6356 -111.7556 314° West 322 371 17,600 2,274 Climbing Albuquerque Center
Sun 01:56:26 PM 33.6883 -111.8444 306° West 325 374 20,100 2,129 Climbing Albuquerque Center
Sun 01:57:28 PM 33.7481 -111.9481 305° West 332 382 22,000 1,790 Climbing Albuquerque Center
Sun 01:58:30 PM 33.7969 -112.0322 305° West 344 396 23,800 1,839 Climbing Albuquerque Center
Sun 01:59:32 PM 33.8544 -112.1267 306° West 347 399 25,800 1,790 Climbing Albuquerque Center
Sun 02:00:34 PM 33.9303 -112.2075 319° Northwest 361 415 27,500 1,839 Climbing Albuquerque Center
Sun 02:01:36 PM 34.0097 -112.2783 324° Northwest 355 409 29,600 2,129 Climbing Albuquerque Center
Sun 02:02:38 PM 34.1097 -112.3522 329° Northwest 350 403 31,900 1,887 Climbing Albuquerque Center
Sun 02:03:40 PM 34.1956 -112.4106 331° Northwest 351 404 33,500 1,597 Climbing Albuquerque Center
Sun 02:04:42 PM 34.2811 -112.4672 331° Northwest 351 404 35,200 1,548 Climbing Albuquerque Center
Sun 02:05:44 PM 34.3628 -112.5244 330° Northwest 342 394 36,700 1,355 Climbing Albuquerque Center
Sun 02:06:46 PM 34.4161 -112.6061 308° West 319 367 38,000 1,210 Climbing Albuquerque Center
Sun 02:07:48 PM 34.4664 -112.7064 301° West 309 356 39,200 871 Climbing Albuquerque Center
Sun 02:08:50 PM 34.5100 -112.7958 301° West 310 357 39,800 387 Climbing Albuquerque Center
Sun 02:09:52 PM 34.5564 -112.8914 301° West 323 372 40,000 97 Climbing Albuquerque Center
Sun 02:10:54 PM 34.6047 -112.9933 300° West 341 392 40,000  Level Albuquerque Center
Sun 02:11:56 PM 34.6544 -113.0992 300° West 356 410 40,000  Level Albuquerque Center
Sun 02:12:58 PM 34.7172 -113.2289 301° West 368 423 40,000  Level Albuquerque Center
Sun 02:14:00 PM 34.7692 -113.3386 300° West 372 428 40,000  Level Albuquerque Center
Sun 02:15:02 PM 34.8206 -113.4478 300° West 373 429 40,000  Level Albuquerque Center
Sun 02:16:04 PM 34.8725 -113.5572 300° West 373 429 40,000  Level Albuquerque Center
Sun 02:17:06 PM 34.9244 -113.6661 300° West 373 429 40,000  Level Albuquerque Center
Sun 02:18:08 PM 34.9850 -113.7694 306° West 373 429 40,000  Level Albuquerque Center
Sun 02:19:11 PM 35.0633 -113.8919 308° West 378 435 40,000  Level Albuquerque Center
Sun 02:20:13 PM 35.1281 -113.9933 308° West 380 437 40,000  Level Albuquerque Center
Sun 02:21:15 PM 35.1925 -114.0944 308° West 376 433 40,000  Level Albuquerque Center
Sun 02:22:41 PM 35.2814 -114.2397 307° West 380 437 40,000  Level Los Center
Sun 02:23:42 PM 35.3339 -114.3236 308° West 387 445 40,000  Level Los Center
Sun 02:24:45 PM 35.4233 -114.4681 307° West 382 440 40,000  Level Los Center
Sun 02:25:47 PM 35.4892 -114.5731 308° West 387 445 40,000  Level Los Center
Sun 02:26:49 PM 35.5544 -114.6781 307° West 388 447 40,000  Level Los Center
Sun 02:27:51 PM 35.6200 -114.7836 307° West 388 447 40,000  Level Los Center
Sun 02:28:53 PM 35.6864 -114.8892 308° West 390 449 40,000  Level Los Center
Sun 02:29:55 PM 35.7522 -114.9953 307° West 389 448 40,000  Level Los Center
Sun 02:30:57 PM 35.8172 -115.1017 307° West 388 447 40,000  Level Los Center
Sun 02:32:00 PM 35.8964 -115.2317 307° West 392 451 40,000  Level Los Center
Sun 02:33:02 PM 35.9633 -115.3400 307° West 394 453 40,000  Level Los Center
Sun 02:34:16 PM 36.0292 -115.4489 307° West 393 452 40,000  Level Los Center
Sun 02:35:18 PM 36.1081 -115.5803 307° West 392 451 40,000  Level Los Center
Sun 02:36:20 PM 36.1750 -115.6925 306° West 395 455 40,000  Level Los Center
Sun 02:37:22 PM 36.2431 -115.8039 307° West 397 457 40,000  Level Los Center
Sun 02:38:24 PM 36.3094 -115.9142 307° West 399 459 40,000  Level Los Center
Sun 02:39:27 PM 36.3892 -116.0472 307° West 400 460 40,000  Level Los Center
Sun 02:40:29 PM 36.4544 -116.1578 306° West 399 459 40,000  Level Los Center
Sun 02:41:31 PM 36.5167 -116.2608 307° West 398 458 40,000  Level Los Center
Sun 02:42:33 PM 36.5869 -116.3792 307° West 399 459 40,000  Level Los Center
Sun 02:43:35 PM 36.6522 -116.4906 306° West 398 458 40,000  Level Los Center
Sun 02:44:37 PM 36.7178 -116.6028 306° West 400 460 40,000  Level Los Center
Sun 02:45:39 PM 36.7833 -116.7142 306° West 397 457 40,000  Level Los Center
Sun 02:46:41 PM 36.8900 -116.8186 322° Northwest 409 471 40,000  Level Los Center
Sun 02:47:43 PM 36.9847 -116.9006 325° Northwest 411 473 40,000  Level Los Center
Sun 02:48:45 PM 37.0622 -116.9639 327° Northwest 413 475 40,000  Level Los Center
Sun 02:49:48 PM 37.1764 -117.0606 326° Northwest 413 475 40,000  Level Los Center
Sun 02:50:50 PM 37.2725 -117.1408 326° Northwest 414 476 40,000  Level Los Center
Sun 02:51:52 PM 37.3681 -117.2231 326° Northwest 414 476 40,000  Level Los Center
Sun 02:52:54 PM 37.4822 -117.3211 326° Northwest 413 475 40,000  Level Los Center
Sun 02:54:08 PM 37.5744 -117.4086 323° Northwest 412 474 40,000  Level Los Center
Sun 02:54:40 PM 37.6094 -117.4792 302° West 397 457 40,000  Level Oakland Center
Sun 02:55:42 PM 37.6272 -117.6158 279° West 398 458 40,000  Level Oakland Center
Sun 02:56:43 PM 37.6300 -117.7806 271° West 390 449 40,000  Level Oakland Center
Sun 02:57:45 PM 37.6311 -117.9178 271° West 391 450 40,000  Level Oakland Center
Sun 02:58:47 PM 37.6331 -118.0556 271° West 392 451 40,000  Level Oakland Center
Sun 02:59:48 PM 37.6347 -118.1928 271° West 391 450 40,000  Level Oakland Center
Sun 03:00:50 PM 37.6356 -118.3297 270° West 390 449 40,000  Level Oakland Center
Sun 03:01:51 PM 37.6369 -118.4678 271° West 392 451 40,000  Level Oakland Center
Sun 03:02:53 PM 37.6381 -118.6053 271° West 392 451 40,000  Level Oakland Center
Sun 03:03:55 PM 37.6383 -118.7414 270° West 390 449 40,000  Level Oakland Center
Sun 03:04:56 PM 37.6397 -118.9028 271° West 389 448 40,000  Level Oakland Center
Sun 03:05:58 PM 37.6406 -119.0389 270° West 389 448 40,000  Level Oakland Center
Sun 03:07:00 PM 37.6389 -119.1747 269° West 388 447 40,000  Level Oakland Center
Sun 03:08:01 PM 37.6392 -119.3114 270° West 388 447 40,000  Level Oakland Center
Sun 03:09:03 PM 37.6375 -119.4469 269° West 388 447 40,000  Level Oakland Center
Sun 03:10:05 PM 37.6408 -119.5797 272° West 384 442 40,000 -48 Level Oakland Center
Sun 03:11:07 PM 37.6406 -119.7158 270° West 387 445 39,900 -1,024 Descending Oakland Center
Sun 03:12:08 PM 37.6381 -119.8514 269° West 387 445 37,900 -2,146 Descending Oakland Center
Sun 03:13:10 PM 37.6375 -120.0078 270° West 371 427 35,500 -2,081 Descending Oakland Center
Sun 03:14:12 PM 37.6367 -120.1378 270° West 370 426 33,600 -1,951 Descending Oakland Center
Sun 03:15:13 PM 37.6356 -120.2711 269° West 378 435 31,500 -2,049 Descending Oakland Center
Sun 03:16:15 PM 37.6342 -120.4078 269° West 386 444 29,400 -1,984 Descending Oakland Center
Sun 03:17:17 PM 37.6328 -120.5444 269° West 386 444 27,400 -2,069 Descending Oakland Center
Sun 03:18:11 PM 37.6333 -120.6833 270° West 375 432 25,400 -2,056 Descending Northern TRACON
Sun 03:19:05 PM 37.6333 -120.7833 270° West 358 412 23,700 -1,842 Descending Northern TRACON
Sun 03:20:05 PM 37.6333 -120.9000 270° West 351 404 21,900 -1,800 Descending Northern TRACON
Sun 03:21:05 PM 37.6167 -121.0333 261° West 339 390 20,100 -1,750 Descending Northern TRACON
Sun 03:22:05 PM 37.6000 -121.1500 260° West 343 395 18,400 -1,800 Descending Northern TRACON
Sun 03:23:05 PM 37.6000 -121.2667 270° West 327 376 16,500 -1,800 Descending Northern TRACON
Sun 03:24:05 PM 37.5833 -121.3667 258° West 312 359 14,800 -1,579 Descending Northern TRACON
Sun 03:24:59 PM 37.5667 -121.4500 256° West 298 343 13,500 -1,400 Descending Northern TRACON
Sun 03:26:05 PM 37.5667 -121.5500 270° West 235 270 12,000 -1,200 Descending Northern TRACON
Sun 03:26:59 PM 37.5500 -121.6333 256° West 239 275 11,100 -1,000 Descending Northern TRACON
Sun 03:27:59 PM 37.6000 -121.7000 313° West 250 288 10,100 -550 Descending Northern TRACON
Sun 03:28:59 PM 37.6333 -121.7667 302° West 244 281 10,000 -48 Descending Northern TRACON
Sun 03:30:05 PM 37.6833 -121.8333 313° West 242 278 10,000 -250 Level Northern TRACON
Sun 03:30:59 PM 37.7000 -121.9167 284° West 244 281 9,500 -385 Descending Northern TRACON
Sun 03:32:41 PM 37.6558 -122.0047 238° Southwest 240 276 9,000 -183 Descending Oakland Center
Sun 03:33:43 PM 37.5864 -121.9886 170° South 247 284 9,000  Level Oakland Center
Sun 03:34:44 PM 37.5633 -121.9181 112° Southeast 221 254 9,000  Level Oakland Center
Sun 03:35:46 PM 37.5383 -121.8494 115° Southeast 218 251 9,000  Level Oakland Center
Sun 03:36:47 PM 37.5136 -121.7794 114° Southeast 219 252 9,000  Level Oakland Center
Sun 03:37:49 PM 37.4803 -121.7186 125° Southeast 235 270 9,000  Level Oakland Center
Sun 03:38:51 PM 37.4258 -121.7392 197° South 215 247 9,000 -195 Level Oakland Center
Sun 03:39:52 PM 37.4206 -121.8086 265° West 203 234 8,600 -469 Descending Oakland Center
Sun 03:40:59 PM 37.4167 -121.9000 267° West 184 212 8,000 -614 Descending Northern TRACON
Sun 03:41:59 PM 37.4333 -121.9500 293° West 174 200 7,300 -850 Descending Northern TRACON
Sun 03:42:59 PM 37.4667 -122.0000 310° West 164 189 6,300 -1,050 Descending Northern TRACON
Sun 03:43:59 PM 37.4500 -122.0500 247° West 164 189 5,200 -850 Descending Northern TRACON
Sun 03:44:59 PM 37.4833 -122.0667 338° Northwest 156 180 4,600 -600 Descending Northern TRACON
Sun 03:45:59 PM 37.5000 -122.1000 302° West 148 170 4,000 -750 Descending Northern TRACON
Sun 03:46:59 PM 37.5333 -122.1500 310° West 154 177 3,100 -850 Descending Northern TRACON
Sun 03:47:59 PM 37.5500 -122.2000 293° West 154 177 2,300 -650 Descending Northern TRACON
Sun 03:48:59 PM 37.5667 -122.2500 293° West 145 167 1,800 -600 Descending Northern TRACON
Sun 03:49:59 PM 37.5833 -122.2833 302° West 143 165 1,100 -650 Descending Northern TRACON
Sun 03:50:59 PM 37.6000 -122.3333 293° West 145 167 500 -409 Descending Northern TRACON
Sun 03:52:11 PM 37.6206 -122.3797 299° West 143 165 200 -250 Descending Oakland Center

Login

Don't have an account? Register now (free) for customized features, flight alerts, and more!